sensor_id;sensor_type;location;lat;lon;timestamp;pressure;altitude;pressure_sealevel;temperature;humidity
64189;BME280;50493;50.970;10.082;2023-12-07T00:01:07;99473.16;;;3.45;63.21
64189;BME280;50493;50.970;10.082;2023-12-07T00:03:32;99473.16;;;3.45;64.21
64189;BME280;50493;50.970;10.082;2023-12-07T00:05:58;99483.25;;;3.20;64.06
64189;BME280;50493;50.970;10.082;2023-12-07T00:08:23;99486.78;;;3.28;64.41
64189;BME280;50493;50.970;10.082;2023-12-07T00:10:48;99483.38;;;3.31;64.50
64189;BME280;50493;50.970;10.082;2023-12-07T00:13:15;99487.53;;;3.18;65.01
64189;BME280;50493;50.970;10.082;2023-12-07T00:15:40;99483.41;;;3.35;63.44
64189;BME280;50493;50.970;10.082;2023-12-07T00:18:06;99489.38;;;3.31;63.53
64189;BME280;50493;50.970;10.082;2023-12-07T00:20:32;99483.50;;;3.46;63.13
64189;BME280;50493;50.970;10.082;2023-12-07T00:22:57;99474.91;;;3.49;62.79
64189;BME280;50493;50.970;10.082;2023-12-07T00:25:22;99483.50;;;3.45;63.08
64189;BME280;50493;50.970;10.082;2023-12-07T00:27:48;99491.13;;;3.31;62.57
64189;BME280;50493;50.970;10.082;2023-12-07T00:30:15;99491.97;;;3.33;62.96
64189;BME280;50493;50.970;10.082;2023-12-07T00:32:40;99492.16;;;3.53;62.61
64189;BME280;50493;50.970;10.082;2023-12-07T00:35:08;99491.97;;;3.31;63.46
64189;BME280;50493;50.970;10.082;2023-12-07T00:37:34;99497.22;;;3.40;63.60
64189;BME280;50493;50.970;10.082;2023-12-07T00:39:59;99496.31;;;3.34;64.21
64189;BME280;50493;50.970;10.082;2023-12-07T00:42:24;99498.91;;;3.38;64.30
64189;BME280;50493;50.970;10.082;2023-12-07T00:44:51;99499.00;;;3.48;64.77
64189;BME280;50493;50.970;10.082;2023-12-07T00:47:17;99498.31;;;3.66;63.46
64189;BME280;50493;50.970;10.082;2023-12-07T00:49:43;99503.50;;;3.66;63.90
64189;BME280;50493;50.970;10.082;2023-12-07T00:52:08;99507.94;;;3.82;62.39
64189;BME280;50493;50.970;10.082;2023-12-07T00:54:33;99497.63;;;3.90;62.77
64189;BME280;50493;50.970;10.082;2023-12-07T00:56:59;99511.19;;;3.58;63.18
64189;BME280;50493;50.970;10.082;2023-12-07T00:59:24;99517.19;;;3.58;63.21
64189;BME280;50493;50.970;10.082;2023-12-07T01:01:50;99524.22;;;3.75;63.96
64189;BME280;50493;50.970;10.082;2023-12-07T01:04:16;99527.63;;;3.69;64.28
64189;BME280;50493;50.970;10.082;2023-12-07T01:06:43;99531.13;;;3.71;62.28
64189;BME280;50493;50.970;10.082;2023-12-07T01:09:08;99528.44;;;3.62;64.26
64189;BME280;50493;50.970;10.082;2023-12-07T01:11:38;99535.25;;;3.54;62.44
64189;BME280;50493;50.970;10.082;2023-12-07T01:14:04;99536.84;;;3.39;63.01
64189;BME280;50493;50.970;10.082;2023-12-07T01:16:30;99527.22;;;3.24;65.03
64189;BME280;50493;50.970;10.082;2023-12-07T01:18:55;99537.72;;;3.40;63.28
64189;BME280;50493;50.970;10.082;2023-12-07T01:21:22;99532.56;;;3.40;63.34
64189;BME280;50493;50.970;10.082;2023-12-07T01:23:47;99537.63;;;3.29;65.35
64189;BME280;50493;50.970;10.082;2023-12-07T01:26:13;99538.69;;;3.53;63.29
64189;BME280;50493;50.970;10.082;2023-12-07T01:28:38;99541.06;;;3.33;63.56
64189;BME280;50493;50.970;10.082;2023-12-07T01:31:04;99541.16;;;3.39;64.49
64189;BME280;50493;50.970;10.082;2023-12-07T01:33:29;99547.19;;;3.39;65.29
64189;BME280;50493;50.970;10.082;2023-12-07T01:35:54;99552.41;;;3.44;64.30
64189;BME280;50493;50.970;10.082;2023-12-07T01:38:21;99552.38;;;3.43;64.32
64189;BME280;50493;50.970;10.082;2023-12-07T01:40:46;99552.50;;;3.55;62.97
64189;BME280;50493;50.970;10.082;2023-12-07T01:43:12;99547.06;;;3.27;64.27
64189;BME280;50493;50.970;10.082;2023-12-07T01:45:37;99550.59;;;3.38;64.55
64189;BME280;50493;50.970;10.082;2023-12-07T01:48:03;99558.22;;;3.24;64.30
64189;BME280;50493;50.970;10.082;2023-12-07T01:50:28;99560.94;;;3.38;64.18
64189;BME280;50493;50.970;10.082;2023-12-07T01:52:59;99566.81;;;3.22;64.48
64189;BME280;50493;50.970;10.082;2023-12-07T01:55:29;99573.31;;;2.92;65.10
64189;BME280;50493;50.970;10.082;2023-12-07T01:57:56;99570.16;;;3.12;65.26
64189;BME280;50493;50.970;10.082;2023-12-07T02:00:21;99571.97;;;3.23;64.96
64189;BME280;50493;50.970;10.082;2023-12-07T02:02:47;99577.25;;;3.33;64.01
64189;BME280;50493;50.970;10.082;2023-12-07T02:05:13;99577.03;;;3.14;64.73
64189;BME280;50493;50.970;10.082;2023-12-07T02:07:40;99569.56;;;3.37;64.16
64189;BME280;50493;50.970;10.082;2023-12-07T02:10:07;99573.22;;;3.58;62.77
64189;BME280;50493;50.970;10.082;2023-12-07T02:12:33;99569.72;;;3.56;64.18
64189;BME280;50493;50.970;10.082;2023-12-07T02:15:00;99569.78;;;3.59;64.11
64189;BME280;50493;50.970;10.082;2023-12-07T02:17:30;99566.09;;;3.38;64.57
64189;BME280;50493;50.970;10.082;2023-12-07T02:20:02;99573.19;;;3.55;63.45
64189;BME280;50493;50.970;10.082;2023-12-07T02:22:33;99574.69;;;3.34;66.39
64189;BME280;50493;50.970;10.082;2023-12-07T02:25:06;99567.81;;;3.36;65.76
64189;BME280;50493;50.970;10.082;2023-12-07T02:27:37;99575.56;;;3.35;64.60
64189;BME280;50493;50.970;10.082;2023-12-07T02:30:05;99579.59;;;3.10;64.36
64189;BME280;50493;50.970;10.082;2023-12-07T02:32:30;99569.47;;;3.28;64.78
64189;BME280;50493;50.970;10.082;2023-12-07T02:34:56;99563.59;;;3.43;64.10
64189;BME280;50493;50.970;10.082;2023-12-07T02:37:21;99565.28;;;3.39;64.80
64189;BME280;50493;50.970;10.082;2023-12-07T02:39:50;99564.72;;;3.73;63.05
64189;BME280;50493;50.970;10.082;2023-12-07T02:42:16;99566.25;;;3.51;63.89
64189;BME280;50493;50.970;10.082;2023-12-07T02:44:43;99564.31;;;3.31;64.57
64189;BME280;50493;50.970;10.082;2023-12-07T02:47:09;99559.91;;;3.21;64.39
64189;BME280;50493;50.970;10.082;2023-12-07T02:49:34;99571.09;;;3.20;64.36
64189;BME280;50493;50.970;10.082;2023-12-07T02:52:00;99578.19;;;2.70;66.06
64189;BME280;50493;50.970;10.082;2023-12-07T02:54:25;99581.06;;;2.92;65.43
64189;BME280;50493;50.970;10.082;2023-12-07T02:56:50;99583.97;;;2.51;66.32
64189;BME280;50493;50.970;10.082;2023-12-07T02:59:16;99591.47;;;2.37;67.40
64189;BME280;50493;50.970;10.082;2023-12-07T03:01:42;99582.28;;;2.56;66.91
64189;BME280;50493;50.970;10.082;2023-12-07T03:04:08;99582.44;;;2.65;67.10
64189;BME280;50493;50.970;10.082;2023-12-07T03:06:33;99589.50;;;2.79;65.93
64189;BME280;50493;50.970;10.082;2023-12-07T03:08:59;99582.97;;;3.05;65.45
64189;BME280;50493;50.970;10.082;2023-12-07T03:11:24;99587.47;;;3.20;64.15
64189;BME280;50493;50.970;10.082;2023-12-07T03:13:49;99590.16;;;3.31;63.98
64189;BME280;50493;50.970;10.082;2023-12-07T03:16:15;99595.16;;;3.16;64.67
64189;BME280;50493;50.970;10.082;2023-12-07T03:18:41;99592.63;;;3.22;65.11
64189;BME280;50493;50.970;10.082;2023-12-07T03:21:07;99585.53;;;3.01;64.65
64189;BME280;50493;50.970;10.082;2023-12-07T03:23:32;99598.72;;;2.61;65.71
64189;BME280;50493;50.970;10.082;2023-12-07T03:25:57;99592.41;;;3.03;64.85
64189;BME280;50493;50.970;10.082;2023-12-07T03:28:22;99584.88;;;3.22;64.57
64189;BME280;50493;50.970;10.082;2023-12-07T03:30:48;99588.31;;;3.21;64.95
64189;BME280;50493;50.970;10.082;2023-12-07T03:33:13;99587.81;;;2.81;65.36
64189;BME280;50493;50.970;10.082;2023-12-07T03:35:40;99589.66;;;2.91;64.49
64189;BME280;50493;50.970;10.082;2023-12-07T03:38:06;99598.19;;;2.85;65.12
64189;BME280;50493;50.970;10.082;2023-12-07T03:40:31;99601.69;;;2.89;65.17
64189;BME280;50493;50.970;10.082;2023-12-07T03:42:57;99595.63;;;2.87;66.15
64189;BME280;50493;50.970;10.082;2023-12-07T03:45:22;99594.91;;;2.97;64.28
64189;BME280;50493;50.970;10.082;2023-12-07T03:47:48;99599.31;;;3.04;65.03
64189;BME280;50493;50.970;10.082;2023-12-07T03:50:13;99610.69;;;3.19;64.13
64189;BME280;50493;50.970;10.082;2023-12-07T03:52:40;99607.34;;;3.28;64.37
64189;BME280;50493;50.970;10.082;2023-12-07T03:55:06;99607.47;;;3.38;62.85
64189;BME280;50493;50.970;10.082;2023-12-07T03:57:31;99605.81;;;3.45;63.05
64189;BME280;50493;50.970;10.082;2023-12-07T03:59:56;99607.66;;;3.57;63.83
64189;BME280;50493;50.970;10.082;2023-12-07T04:02:22;99615.38;;;3.51;62.75
64189;BME280;50493;50.970;10.082;2023-12-07T04:04:47;99613.53;;;3.42;63.40
64189;BME280;50493;50.970;10.082;2023-12-07T04:07:13;99609.19;;;3.36;64.18
64189;BME280;50493;50.970;10.082;2023-12-07T04:09:39;99619.75;;;2.87;65.16
64189;BME280;50493;50.970;10.082;2023-12-07T04:12:05;99615.97;;;2.65;66.16
64189;BME280;50493;50.970;10.082;2023-12-07T04:14:31;99627.50;;;2.87;66.35
64189;BME280;50493;50.970;10.082;2023-12-07T04:16:56;99624.31;;;3.05;65.80
64189;BME280;50493;50.970;10.082;2023-12-07T04:19:21;99621.84;;;3.15;64.21
64189;BME280;50493;50.970;10.082;2023-12-07T04:21:47;99625.97;;;3.03;64.57
64189;BME280;50493;50.970;10.082;2023-12-07T04:24:12;99626.47;;;2.76;65.14
64189;BME280;50493;50.970;10.082;2023-12-07T04:26:39;99626.88;;;3.04;64.68
64189;BME280;50493;50.970;10.082;2023-12-07T04:29:04;99622.75;;;3.18;64.29
64189;BME280;50493;50.970;10.082;2023-12-07T04:31:29;99626.53;;;2.79;65.19
64189;BME280;50493;50.970;10.082;2023-12-07T04:33:55;99630.13;;;2.94;64.74
64189;BME280;50493;50.970;10.082;2023-12-07T04:36:20;99629.19;;;2.29;66.97
64189;BME280;50493;50.970;10.082;2023-12-07T04:38:45;99635.66;;;2.57;66.93
64189;BME280;50493;50.970;10.082;2023-12-07T04:41:11;99636.22;;;2.97;65.81
64189;BME280;50493;50.970;10.082;2023-12-07T04:43:37;99634.66;;;3.09;65.30
64189;BME280;50493;50.970;10.082;2023-12-07T04:46:03;99640.59;;;2.98;64.78
64189;BME280;50493;50.970;10.082;2023-12-07T04:48:28;99645.44;;;2.78;65.33
64189;BME280;50493;50.970;10.082;2023-12-07T04:50:54;99643.94;;;2.94;64.98
64189;BME280;50493;50.970;10.082;2023-12-07T04:53:19;99641.59;;;3.13;64.16
64189;BME280;50493;50.970;10.082;2023-12-07T04:55:44;99650.28;;;3.18;64.85
64189;BME280;50493;50.970;10.082;2023-12-07T04:58:15;99644.13;;;3.05;64.49
64189;BME280;50493;50.970;10.082;2023-12-07T05:00:42;99645.28;;;2.67;65.31
64189;BME280;50493;50.970;10.082;2023-12-07T05:03:07;99646.94;;;2.64;65.86
64189;BME280;50493;50.970;10.082;2023-12-07T05:05:33;99639.44;;;2.81;65.17
64189;BME280;50493;50.970;10.082;2023-12-07T05:07:58;99639.81;;;3.05;64.90
64189;BME280;50493;50.970;10.082;2023-12-07T05:10:23;99642.72;;;2.69;65.22
64189;BME280;50493;50.970;10.082;2023-12-07T05:12:49;99640.91;;;3.26;63.95
64189;BME280;50493;50.970;10.082;2023-12-07T05:15:15;99644.81;;;2.96;64.84
64189;BME280;50493;50.970;10.082;2023-12-07T05:17:42;99644.88;;;2.99;65.21
64189;BME280;50493;50.970;10.082;2023-12-07T05:20:08;99653.69;;;3.14;63.10
64189;BME280;50493;50.970;10.082;2023-12-07T05:22:33;99646.16;;;2.69;65.22
64189;BME280;50493;50.970;10.082;2023-12-07T05:24:58;99645.78;;;2.45;66.60
64189;BME280;50493;50.970;10.082;2023-12-07T05:27:24;99649.97;;;2.96;65.59
64189;BME280;50493;50.970;10.082;2023-12-07T05:29:49;99641.25;;;2.88;65.07
64189;BME280;50493;50.970;10.082;2023-12-07T05:32:14;99648.13;;;2.86;65.11
64189;BME280;50493;50.970;10.082;2023-12-07T05:34:41;99637.34;;;3.15;64.53
64189;BME280;50493;50.970;10.082;2023-12-07T05:37:07;99641.53;;;3.06;64.38
64189;BME280;50493;50.970;10.082;2023-12-07T05:39:33;99638.31;;;3.23;64.63
64189;BME280;50493;50.970;10.082;2023-12-07T05:41:58;99644.19;;;3.11;64.06
64189;BME280;50493;50.970;10.082;2023-12-07T05:44:23;99655.91;;;2.89;64.60
64189;BME280;50493;50.970;10.082;2023-12-07T05:46:49;99651.56;;;2.85;64.80
64189;BME280;50493;50.970;10.082;2023-12-07T05:49:14;99652.16;;;3.28;63.22
64189;BME280;50493;50.970;10.082;2023-12-07T05:51:41;99649.31;;;3.08;63.63
64189;BME280;50493;50.970;10.082;2023-12-07T05:54:06;99648.06;;;2.83;64.58
64189;BME280;50493;50.970;10.082;2023-12-07T05:56:32;99649.31;;;2.50;66.44
64189;BME280;50493;50.970;10.082;2023-12-07T05:58:57;99654.69;;;2.65;65.64
64189;BME280;50493;50.970;10.082;2023-12-07T06:01:22;99652.28;;;2.78;65.27
64189;BME280;50493;50.970;10.082;2023-12-07T06:03:49;99653.19;;;2.78;65.08
64189;BME280;50493;50.970;10.082;2023-12-07T06:06:14;99657.53;;;2.82;64.85
64189;BME280;50493;50.970;10.082;2023-12-07T06:08:41;99653.91;;;2.71;65.11
64189;BME280;50493;50.970;10.082;2023-12-07T06:11:07;99657.22;;;2.59;65.76
64189;BME280;50493;50.970;10.082;2023-12-07T06:13:32;99656.72;;;2.85;65.00
64189;BME280;50493;50.970;10.082;2023-12-07T06:15:58;99648.72;;;3.29;63.25
64189;BME280;50493;50.970;10.082;2023-12-07T06:18:24;99652.03;;;3.19;64.12
64189;BME280;50493;50.970;10.082;2023-12-07T06:20:50;99659.94;;;2.68;64.60
64189;BME280;50493;50.970;10.082;2023-12-07T06:23:15;99662.22;;;2.50;65.28
64189;BME280;50493;50.970;10.082;2023-12-07T06:25:42;99666.75;;;2.66;65.50
64189;BME280;50493;50.970;10.082;2023-12-07T06:28:07;99664.28;;;2.72;64.65
64189;BME280;50493;50.970;10.082;2023-12-07T06:30:33;99680.78;;;2.29;65.94
64189;BME280;50493;50.970;10.082;2023-12-07T06:32:59;99682.94;;;2.02;66.87
64189;BME280;50493;50.970;10.082;2023-12-07T06:35:25;99681.22;;;2.03;67.74
64189;BME280;50493;50.970;10.082;2023-12-07T06:37:50;99690.91;;;2.16;66.70
64189;BME280;50493;50.970;10.082;2023-12-07T06:40:15;99686.53;;;2.64;66.18
64189;BME280;50493;50.970;10.082;2023-12-07T06:42:42;99687.75;;;2.89;64.05
64189;BME280;50493;50.970;10.082;2023-12-07T06:45:08;99689.06;;;2.61;65.84
64189;BME280;50493;50.970;10.082;2023-12-07T06:47:36;99696.91;;;2.67;65.82
64189;BME280;50493;50.970;10.082;2023-12-07T06:50:01;99699.66;;;2.80;65.04
64189;BME280;50493;50.970;10.082;2023-12-07T06:52:28;99701.44;;;2.84;64.91
64189;BME280;50493;50.970;10.082;2023-12-07T06:54:53;99693.94;;;2.99;64.69
64189;BME280;50493;50.970;10.082;2023-12-07T06:57:18;99698.53;;;3.20;63.18
64189;BME280;50493;50.970;10.082;2023-12-07T06:59:45;99701.78;;;3.05;64.21
64189;BME280;50493;50.970;10.082;2023-12-07T07:02:11;99711.88;;;2.90;64.73
64189;BME280;50493;50.970;10.082;2023-12-07T07:04:37;99699.22;;;3.05;64.19
64189;BME280;50493;50.970;10.082;2023-12-07T07:07:02;99703.44;;;3.00;63.97
64189;BME280;50493;50.970;10.082;2023-12-07T07:09:28;99700.44;;;3.32;63.04
64189;BME280;50493;50.970;10.082;2023-12-07T07:11:53;99703.84;;;3.31;63.99
64189;BME280;50493;50.970;10.082;2023-12-07T07:14:18;99702.00;;;3.21;63.75
64189;BME280;50493;50.970;10.082;2023-12-07T07:16:45;99708.78;;;3.13;63.38
64189;BME280;50493;50.970;10.082;2023-12-07T07:19:10;99709.50;;;3.02;64.67
64189;BME280;50493;50.970;10.082;2023-12-07T07:21:36;99708.69;;;3.06;64.54
64189;BME280;50493;50.970;10.082;2023-12-07T07:24:01;99714.22;;;3.34;64.34
64189;BME280;50493;50.970;10.082;2023-12-07T07:26:27;99711.13;;;2.97;63.65
64189;BME280;50493;50.970;10.082;2023-12-07T07:28:52;99712.41;;;2.69;64.43
64189;BME280;50493;50.970;10.082;2023-12-07T07:31:18;99720.00;;;2.58;64.96
64189;BME280;50493;50.970;10.082;2023-12-07T07:33:45;99713.28;;;2.69;64.45
64189;BME280;50493;50.970;10.082;2023-12-07T07:36:12;99720.22;;;2.73;64.25
64189;BME280;50493;50.970;10.082;2023-12-07T07:38:37;99729.78;;;2.27;66.10
64189;BME280;50493;50.970;10.082;2023-12-07T07:41:03;99734.13;;;2.28;65.66
64189;BME280;50493;50.970;10.082;2023-12-07T07:43:29;99724.16;;;1.99;66.98
64189;BME280;50493;50.970;10.082;2023-12-07T07:45:54;99728.22;;;2.35;66.29
64189;BME280;50493;50.970;10.082;2023-12-07T07:48:20;99727.22;;;2.81;65.28
64189;BME280;50493;50.970;10.082;2023-12-07T07:50:46;99728.09;;;2.83;64.27
64189;BME280;50493;50.970;10.082;2023-12-07T07:53:12;99723.13;;;2.95;64.48
64189;BME280;50493;50.970;10.082;2023-12-07T07:55:38;99727.66;;;3.09;64.33
64189;BME280;50493;50.970;10.082;2023-12-07T07:58:03;99724.38;;;3.19;63.95
64189;BME280;50493;50.970;10.082;2023-12-07T08:00:28;99732.19;;;3.25;63.38
64189;BME280;50493;50.970;10.082;2023-12-07T08:02:54;99729.78;;;3.37;63.77
64189;BME280;50493;50.970;10.082;2023-12-07T08:05:19;99730.75;;;3.46;63.60
64189;BME280;50493;50.970;10.082;2023-12-07T08:07:45;99732.44;;;3.45;63.67
64189;BME280;50493;50.970;10.082;2023-12-07T08:10:11;99739.38;;;3.46;62.86
64189;BME280;50493;50.970;10.082;2023-12-07T08:12:36;99740.00;;;3.30;63.68
64189;BME280;50493;50.970;10.082;2023-12-07T08:15:05;99743.00;;;2.99;63.78
64189;BME280;50493;50.970;10.082;2023-12-07T08:17:30;99746.78;;;3.20;63.29
64189;BME280;50493;50.970;10.082;2023-12-07T08:19:56;99747.06;;;3.42;63.48
64189;BME280;50493;50.970;10.082;2023-12-07T08:22:22;99749.44;;;3.26;62.90
64189;BME280;50493;50.970;10.082;2023-12-07T08:24:49;99746.16;;;3.38;63.41
64189;BME280;50493;50.970;10.082;2023-12-07T08:27:14;99752.31;;;3.49;63.60
64189;BME280;50493;50.970;10.082;2023-12-07T08:29:40;99752.38;;;3.51;63.56
64189;BME280;50493;50.970;10.082;2023-12-07T08:32:05;99748.91;;;3.52;63.89
64189;BME280;50493;50.970;10.082;2023-12-07T08:34:31;99752.41;;;3.54;63.84
64189;BME280;50493;50.970;10.082;2023-12-07T08:36:56;99743.72;;;3.50;63.03
64189;BME280;50493;50.970;10.082;2023-12-07T08:39:22;99749.84;;;3.58;63.13
64189;BME280;50493;50.970;10.082;2023-12-07T08:41:49;99759.25;;;3.52;62.65
64189;BME280;50493;50.970;10.082;2023-12-07T08:44:14;99763.59;;;3.56;62.25
64189;BME280;50493;50.970;10.082;2023-12-07T08:46:39;99752.53;;;3.63;62.46
64189;BME280;50493;50.970;10.082;2023-12-07T08:49:05;99755.25;;;3.77;62.73
64189;BME280;50493;50.970;10.082;2023-12-07T08:51:31;99746.69;;;3.80;62.88
64189;BME280;50493;50.970;10.082;2023-12-07T08:53:56;99749.16;;;3.72;62.59
64189;BME280;50493;50.970;10.082;2023-12-07T08:56:21;99747.28;;;3.60;62.69
64189;BME280;50493;50.970;10.082;2023-12-07T08:58:48;99744.94;;;3.80;63.02
64189;BME280;50493;50.970;10.082;2023-12-07T09:01:14;99751.72;;;3.67;62.12
64189;BME280;50493;50.970;10.082;2023-12-07T09:03:39;99760.28;;;3.63;63.28
64189;BME280;50493;50.970;10.082;2023-12-07T09:06:07;99762.06;;;3.67;62.62
64189;BME280;50493;50.970;10.082;2023-12-07T09:08:33;99756.00;;;3.68;63.34
64189;BME280;50493;50.970;10.082;2023-12-07T09:10:58;99754.31;;;3.70;63.11
64189;BME280;50493;50.970;10.082;2023-12-07T09:13:24;99755.97;;;3.65;61.97
64189;BME280;50493;50.970;10.082;2023-12-07T09:15:51;99747.50;;;3.76;61.94
64189;BME280;50493;50.970;10.082;2023-12-07T09:18:16;99750.19;;;3.86;62.44
64189;BME280;50493;50.970;10.082;2023-12-07T09:20:42;99749.06;;;3.64;62.74
64189;BME280;50493;50.970;10.082;2023-12-07T09:23:13;99750.69;;;3.56;62.34
64189;BME280;50493;50.970;10.082;2023-12-07T09:25:40;99745.03;;;3.19;63.34
64189;BME280;50493;50.970;10.082;2023-12-07T09:28:06;99745.63;;;3.65;64.59
64189;BME280;50493;50.970;10.082;2023-12-07T09:30:31;99735.44;;;3.79;63.11
64189;BME280;50493;50.970;10.082;2023-12-07T09:33:00;99738.59;;;3.53;62.59
64189;BME280;50493;50.970;10.082;2023-12-07T09:35:27;99739.66;;;3.71;63.28
64189;BME280;50493;50.970;10.082;2023-12-07T09:37:53;99742.38;;;3.80;63.52
64189;BME280;50493;50.970;10.082;2023-12-07T09:40:20;99743.25;;;3.81;62.36
64189;BME280;50493;50.970;10.082;2023-12-07T09:42:46;99745.63;;;3.65;62.05
64189;BME280;50493;50.970;10.082;2023-12-07T09:45:12;99746.53;;;3.66;62.65
64189;BME280;50493;50.970;10.082;2023-12-07T09:47:39;99747.63;;;3.88;62.71
64189;BME280;50493;50.970;10.082;2023-12-07T09:50:07;99746.72;;;3.86;63.41
64189;BME280;50493;50.970;10.082;2023-12-07T09:52:37;99739.06;;;3.95;62.64
64189;BME280;50493;50.970;10.082;2023-12-07T09:55:03;99740.69;;;3.84;63.22
64189;BME280;50493;50.970;10.082;2023-12-07T09:57:29;99732.78;;;3.71;63.81
64189;BME280;50493;50.970;10.082;2023-12-07T09:59:55;99739.31;;;4.17;62.01
64189;BME280;50493;50.970;10.082;2023-12-07T10:02:21;99738.66;;;4.36;61.09
64189;BME280;50493;50.970;10.082;2023-12-07T10:04:46;99738.00;;;4.61;60.70
64189;BME280;50493;50.970;10.082;2023-12-07T10:07:14;99742.44;;;4.75;61.31
64189;BME280;50493;50.970;10.082;2023-12-07T10:09:40;99731.19;;;4.73;60.07
64189;BME280;50493;50.970;10.082;2023-12-07T10:12:06;99733.00;;;4.87;60.27
64189;BME280;50493;50.970;10.082;2023-12-07T10:14:31;99731.44;;;5.11;59.01
64189;BME280;50493;50.970;10.082;2023-12-07T10:16:57;99733.31;;;5.39;61.70
64189;BME280;50493;50.970;10.082;2023-12-07T10:19:23;99735.94;;;5.44;55.68
64189;BME280;50493;50.970;10.082;2023-12-07T10:21:50;99733.47;;;5.58;56.48
64189;BME280;50493;50.970;10.082;2023-12-07T10:24:17;99728.16;;;5.42;55.28
64189;BME280;50493;50.970;10.082;2023-12-07T10:26:43;99724.69;;;5.40;55.86
64189;BME280;50493;50.970;10.082;2023-12-07T10:29:09;99736.00;;;5.53;56.13
64189;BME280;50493;50.970;10.082;2023-12-07T10:31:36;99724.78;;;5.51;58.05
64189;BME280;50493;50.970;10.082;2023-12-07T10:34:01;99718.78;;;5.65;57.70
64189;BME280;50493;50.970;10.082;2023-12-07T10:36:27;99719.69;;;5.74;57.61
64189;BME280;50493;50.970;10.082;2023-12-07T10:38:53;99730.84;;;5.58;55.67
64189;BME280;50493;50.970;10.082;2023-12-07T10:41:20;99733.47;;;5.58;53.79
64189;BME280;50493;50.970;10.082;2023-12-07T10:43:48;99723.16;;;5.80;55.22
64189;BME280;50493;50.970;10.082;2023-12-07T10:46:15;99722.34;;;6.01;55.57
64189;BME280;50493;50.970;10.082;2023-12-07T10:48:44;99718.88;;;6.00;54.03
64189;BME280;50493;50.970;10.082;2023-12-07T10:51:13;99717.81;;;5.46;55.04
64189;BME280;50493;50.970;10.082;2023-12-07T10:53:45;99707.66;;;6.04;55.02
64189;BME280;50493;50.970;10.082;2023-12-07T10:56:15;99699.88;;;6.15;52.50
64189;BME280;50493;50.970;10.082;2023-12-07T10:58:43;99703.34;;;6.60;54.35
64189;BME280;50493;50.970;10.082;2023-12-07T11:01:10;99694.66;;;6.95;52.54
64189;BME280;50493;50.970;10.082;2023-12-07T11:03:37;99693.81;;;6.67;51.78
64189;BME280;50493;50.970;10.082;2023-12-07T11:06:06;99700.75;;;6.65;52.36
64189;BME280;50493;50.970;10.082;2023-12-07T11:08:38;99699.03;;;6.46;52.96
64189;BME280;50493;50.970;10.082;2023-12-07T11:11:06;99687.78;;;6.74;50.59
64189;BME280;50493;50.970;10.082;2023-12-07T11:13:35;99683.44;;;6.69;52.99
64189;BME280;50493;50.970;10.082;2023-12-07T11:16:03;99681.69;;;6.01;53.05
64189;BME280;50493;50.970;10.082;2023-12-07T11:18:28;99673.94;;;6.46;52.53
64189;BME280;50493;50.970;10.082;2023-12-07T11:20:55;99679.09;;;6.32;52.49
64189;BME280;50493;50.970;10.082;2023-12-07T11:23:21;99664.41;;;6.65;52.28
64189;BME280;50493;50.970;10.082;2023-12-07T11:25:47;99672.19;;;6.60;51.05
64189;BME280;50493;50.970;10.082;2023-12-07T11:28:14;99664.31;;;7.01;48.74
64189;BME280;50493;50.970;10.082;2023-12-07T11:30:42;99659.97;;;7.00;50.80
64189;BME280;50493;50.970;10.082;2023-12-07T11:33:09;99664.41;;;6.53;52.71
64189;BME280;50493;50.970;10.082;2023-12-07T11:36:04;99650.53;;;6.66;51.46
64189;BME280;50493;50.970;10.082;2023-12-07T11:38:30;99659.19;;;6.57;48.72
64189;BME280;50493;50.970;10.082;2023-12-07T11:40:56;99657.44;;;6.84;48.81
64189;BME280;50493;50.970;10.082;2023-12-07T11:43:36;99659.19;;;6.50;49.46
64189;BME280;50493;50.970;10.082;2023-12-07T11:46:03;99660.94;;;6.29;50.21
64189;BME280;50493;50.970;10.082;2023-12-07T11:48:30;99656.63;;;6.40;50.78
64189;BME280;50493;50.970;10.082;2023-12-07T11:50:59;99662.66;;;6.61;51.88
64189;BME280;50493;50.970;10.082;2023-12-07T11:53:26;99658.34;;;6.55;53.05
64189;BME280;50493;50.970;10.082;2023-12-07T11:55:52;99652.28;;;6.55;50.66
64189;BME280;50493;50.970;10.082;2023-12-07T11:58:18;99647.97;;;6.57;48.63
64189;BME280;50493;50.970;10.082;2023-12-07T12:00:44;99651.44;;;6.34;49.48
64189;BME280;50493;50.970;10.082;2023-12-07T12:03:12;99655.69;;;6.92;50.56
64189;BME280;50493;50.970;10.082;2023-12-07T12:05:38;99650.44;;;7.03;51.60
64189;BME280;50493;50.970;10.082;2023-12-07T12:08:05;99653.94;;;5.65;56.98
64189;BME280;50493;50.970;10.082;2023-12-07T12:10:30;99644.50;;;6.19;55.64
64189;BME280;50493;50.970;10.082;2023-12-07T12:12:56;99653.06;;;5.66;57.62
64189;BME280;50493;50.970;10.082;2023-12-07T12:15:21;99653.13;;;5.81;56.82
64189;BME280;50493;50.970;10.082;2023-12-07T12:17:46;99641.00;;;6.67;52.01
64189;BME280;50493;50.970;10.082;2023-12-07T12:20:13;99641.91;;;6.19;55.56
64189;BME280;50493;50.970;10.082;2023-12-07T12:22:43;99640.44;;;4.59;62.63
64189;BME280;50493;50.970;10.082;2023-12-07T12:25:09;99631.28;;;5.22;60.28
64189;BME280;50493;50.970;10.082;2023-12-07T12:27:36;99632.81;;;4.80;62.58
64189;BME280;50493;50.970;10.082;2023-12-07T12:30:01;99629.53;;;5.21;61.94
64189;BME280;50493;50.970;10.082;2023-12-07T12:32:27;99630.53;;;5.52;60.18
64189;BME280;50493;50.970;10.082;2023-12-07T12:34:53;99633.06;;;5.35;60.69
64189;BME280;50493;50.970;10.082;2023-12-07T12:37:18;99630.66;;;6.02;56.98
64189;BME280;50493;50.970;10.082;2023-12-07T12:39:45;99624.59;;;6.21;57.36
64189;BME280;50493;50.970;10.082;2023-12-07T12:42:10;99625.38;;;5.63;60.12
64189;BME280;50493;50.970;10.082;2023-12-07T12:44:36;99621.13;;;5.93;60.60
64189;BME280;50493;50.970;10.082;2023-12-07T12:47:05;99615.78;;;5.34;62.66
64189;BME280;50493;50.970;10.082;2023-12-07T12:49:35;99607.25;;;6.56;52.91
64189;BME280;50493;50.970;10.082;2023-12-07T12:52:01;99615.09;;;6.19;54.90
64189;BME280;50493;50.970;10.082;2023-12-07T12:54:30;99617.44;;;5.20;62.92